Time;durP1;ratioP1;P1;durP2;ratioP2;P2;SDS_P1;SDS_P2;PMS_P1;PMS_P2;Temp;Humidity;BMP_temperature;BMP_pressure;BME280_temperature;BME280_humidity;BME280_pressure;Samples;Min_cycle;Max_cycle;Signal;HPM_P1;HPM_P2
2022/05/01 00:01:14;;;;;;;3.92;1.10;;;18.40;99.90;;;;;;5070860;28;20235;-81
2022/05/01 00:03:45;;;;;;;1.60;0.75;;;18.40;99.90;;;;;;5070852;28;20203;-81
2022/05/01 00:06:19;;;;;;;2.75;0.80;;;18.50;99.90;;;;;;5071056;28;20588;-81
2022/05/01 00:08:50;;;;;;;1.55;0.70;;;18.60;99.90;;;;;;5084282;28;20233;-81
2022/05/01 00:11:20;;;;;;;3.33;0.75;;;18.70;99.90;;;;;;5071142;28;20207;-81
2022/05/01 00:13:51;;;;;;;2.63;0.80;;;18.80;99.90;;;;;;5071253;28;20227;-81
2022/05/01 00:16:21;;;;;;;2.97;0.88;;;18.80;99.90;;;;;;5070990;28;20250;-81
2022/05/01 00:18:52;;;;;;;2.72;0.70;;;18.90;99.90;;;;;;5071177;28;20532;-81
2022/05/01 00:21:25;;;;;;;2.63;0.60;;;19.10;99.90;;;;;;5080299;28;20239;-81
2022/05/01 00:23:56;;;;;;;2.95;1.20;;;19.20;99.90;;;;;;5088458;28;20202;-81
2022/05/01 00:26:26;;;;;;;2.55;0.80;;;19.10;99.90;;;;;;5069571;28;20196;-81
2022/05/01 00:28:57;;;;;;;3.55;0.90;;;19.20;99.90;;;;;;5069935;28;20204;-81
2022/05/01 00:31:28;;;;;;;3.00;0.75;;;19.20;99.90;;;;;;5070236;28;20195;-81
2022/05/01 00:36:50;;;;;;;3.63;0.85;;;19.30;99.90;;;;;;5052628;28;20192;-81
2022/05/01 00:39:20;;;;;;;3.45;1.00;;;19.30;99.90;;;;;;5070701;28;20200;-80
2022/05/01 00:41:51;;;;;;;2.88;0.80;;;19.30;99.90;;;;;;5071083;28;20635;-81
2022/05/01 00:44:24;;;;;;;1.67;0.68;;;19.20;99.90;;;;;;5069402;28;20249;-81
2022/05/01 00:46:56;;;;;;;1.50;0.68;;;19.30;99.90;;;;;;5069542;28;20200;-81
2022/05/01 00:49:27;;;;;;;3.47;0.88;;;19.30;99.90;;;;;;5070045;28;20218;-81
2022/05/01 00:52:01;;;;;;;2.70;0.70;;;19.40;99.90;;;;;;5070051;28;20295;-81
2022/05/01 00:54:34;;;;;;;2.47;0.75;;;19.60;99.90;;;;;;5069889;28;20694;-81
2022/05/01 00:57:06;;;;;;;3.92;1.10;;;19.60;99.90;;;;;;5069639;28;20206;-81
2022/05/01 00:59:39;;;;;;;2.83;0.90;;;19.70;99.90;;;;;;5086610;28;20256;-81
2022/05/01 01:02:10;;;;;;;3.13;1.23;;;19.80;99.90;;;;;;5080836;28;20223;-81
2022/05/01 01:04:41;;;;;;;2.00;0.80;;;19.90;99.90;;;;;;5070183;28;20192;-81
2022/05/01 01:07:14;;;;;;;5.28;0.80;;;19.90;99.90;;;;;;5069803;28;20719;-81
2022/05/01 01:09:44;;;;;;;3.33;1.10;;;19.90;99.90;;;;;;5069474;28;20283;-81
2022/05/01 01:15:11;;;;;;;3.83;1.40;;;20.10;99.90;;;;;;5070264;28;20254;-81
2022/05/01 01:17:42;;;;;;;1.88;0.82;;;20.30;99.90;;;;;;5069636;28;20341;-81
2022/05/01 01:20:17;;;;;;;3.63;1.20;;;20.30;99.90;;;;;;5079895;28;20215;-81
2022/05/01 01:22:51;;;;;;;1.60;0.60;;;20.40;99.90;;;;;;5099137;28;20187;-81
2022/05/01 01:25:24;;;;;;;3.55;0.95;;;20.50;99.90;;;;;;5114149;28;20184;-81
2022/05/01 01:27:56;;;;;;;2.75;0.95;;;20.60;99.90;;;;;;5098582;28;20234;-81
2022/05/01 01:33:14;;;;;;;4.20;0.93;;;20.60;99.90;;;;;;5089864;28;20205;-82
2022/05/01 01:35:46;;;;;;;2.42;0.77;;;20.80;99.90;;;;;;5089550;28;20223;-81
2022/05/01 01:38:21;;;;;;;3.08;0.80;;;20.80;99.90;;;;;;5070367;28;20276;-81
2022/05/01 01:40:54;;;;;;;2.17;0.75;;;20.80;99.90;;;;;;5070647;28;20631;-81
2022/05/01 01:43:29;;;;;;;2.70;0.80;;;20.90;99.90;;;;;;5070612;28;20196;-81
2022/05/01 01:46:00;;;;;;;2.58;0.90;;;20.90;99.90;;;;;;5070260;28;20199;-81
2022/05/01 01:48:30;;;;;;;5.85;0.85;;;21.00;99.90;;;;;;5070181;28;20245;-82
2022/05/01 01:51:02;;;;;;;5.28;0.90;;;21.10;99.90;;;;;;5070159;28;20203;-82
2022/05/01 01:53:39;;;;;;;1.50;0.77;;;21.10;99.90;;;;;;5069899;28;20192;-81
2022/05/01 01:56:10;;;;;;;2.47;0.80;;;21.10;99.90;;;;;;5081328;28;20195;-81
2022/05/01 01:58:41;;;;;;;1.90;0.70;;;21.20;99.90;;;;;;5071363;28;20195;-81
2022/05/01 02:01:12;;;;;;;1.95;0.93;;;21.30;99.90;;;;;;5073603;28;20281;-81
2022/05/01 02:03:43;;;;;;;3.00;0.70;;;21.20;99.90;;;;;;5073362;28;20200;-81
2022/05/01 02:06:14;;;;;;;2.47;0.70;;;21.30;99.90;;;;;;5074299;28;20203;-81
2022/05/01 02:08:48;;;;;;;2.47;1.00;;;21.30;99.90;;;;;;5073594;28;20247;-81
2022/05/01 02:11:20;;;;;;;3.13;1.00;;;21.30;99.90;;;;;;5072570;28;20204;-81
2022/05/01 02:13:50;;;;;;;3.08;1.33;;;21.30;99.90;;;;;;5073073;28;20200;-81
2022/05/01 02:16:21;;;;;;;2.22;1.00;;;21.40;99.90;;;;;;5073349;28;20203;-81
2022/05/01 02:18:52;;;;;;;3.22;0.80;;;21.40;99.90;;;;;;5085033;28;20192;-81
2022/05/01 02:21:37;;;;;;;4.60;0.80;;;21.50;99.90;;;;;;5093960;28;20215;-81
2022/05/01 02:24:14;;;;;;;2.95;0.90;;;21.60;99.90;;;;;;5092167;28;20612;-81
2022/05/01 02:26:46;;;;;;;2.53;0.73;;;21.70;99.90;;;;;;5093589;28;20199;-81
2022/05/01 02:29:17;;;;;;;2.30;0.90;;;21.70;99.90;;;;;;5076308;28;20726;-81
2022/05/01 02:31:53;;;;;;;1.98;0.90;;;21.80;99.90;;;;;;5072743;28;20252;-81
2022/05/01 02:34:24;;;;;;;3.03;0.68;;;21.80;99.90;;;;;;5073253;28;20585;-81
2022/05/01 02:36:56;;;;;;;3.15;1.08;;;21.90;99.90;;;;;;5073141;28;20671;-81
2022/05/01 02:39:29;;;;;;;2.45;0.90;;;22.00;99.90;;;;;;5072774;28;20204;-82
2022/05/01 02:42:00;;;;;;;2.35;0.90;;;22.10;99.90;;;;;;5092766;28;20248;-81
2022/05/01 02:44:30;;;;;;;4.80;1.10;;;22.10;99.90;;;;;;5093345;28;20258;-81
2022/05/01 02:47:01;;;;;;;3.95;0.90;;;22.10;99.90;;;;;;5075525;28;20202;-81
2022/05/01 02:49:32;;;;;;;5.22;1.25;;;22.10;99.90;;;;;;5072387;28;20200;-81
2022/05/01 02:52:02;;;;;;;3.67;1.13;;;22.10;99.90;;;;;;5072695;28;20196;-81
2022/05/01 02:54:35;;;;;;;2.63;0.85;;;22.10;99.90;;;;;;5072719;28;20224;-81
2022/05/01 02:57:06;;;;;;;3.90;0.85;;;22.10;99.90;;;;;;5087916;28;20195;-81
2022/05/01 02:59:37;;;;;;;4.55;0.80;;;22.00;99.90;;;;;;5093013;28;20692;-81
2022/05/01 03:02:11;;;;;;;3.10;0.85;;;22.00;99.90;;;;;;5078106;28;20238;-81
2022/05/01 03:04:42;;;;;;;4.18;1.20;;;22.10;99.90;;;;;;5072418;28;20200;-81
2022/05/01 03:07:13;;;;;;;5.93;1.42;;;22.10;99.90;;;;;;5072773;28;20671;-81
2022/05/01 03:09:45;;;;;;;5.80;1.90;;;22.20;99.90;;;;;;5071554;28;20250;-81
2022/05/01 03:12:18;;;;;;;2.40;0.93;;;22.30;99.90;;;;;;5072351;28;20265;-80
2022/05/01 03:14:52;;;;;;;5.38;0.98;;;22.30;99.90;;;;;;5072764;28;20595;-80
2022/05/01 03:17:22;;;;;;;3.90;0.95;;;22.30;99.90;;;;;;5082999;28;20207;-80
2022/05/01 03:22:40;;;;;;;4.25;1.00;;;22.40;99.90;;;;;;5072344;28;20283;-80
2022/05/01 03:25:12;;;;;;;3.00;0.90;;;22.50;99.90;;;;;;5072281;28;20204;-80
2022/05/01 03:27:43;;;;;;;2.75;0.95;;;22.40;99.90;;;;;;5072278;28;20192;-80
2022/05/01 03:30:20;;;;;;;4.97;1.20;;;22.40;99.90;;;;;;5072305;28;20199;-80
2022/05/01 03:32:51;;;;;;;3.78;1.10;;;22.50;99.90;;;;;;5090740;28;20633;-80
2022/05/01 03:35:22;;;;;;;3.78;1.00;;;22.50;99.90;;;;;;5090624;28;20762;-82
2022/05/01 03:37:53;;;;;;;5.63;1.15;;;22.50;99.90;;;;;;5092496;28;20206;-80
2022/05/01 03:40:26;;;;;;;3.85;0.90;;;22.50;99.90;;;;;;5092355;28;20667;-81
2022/05/01 03:42:56;;;;;;;3.28;0.90;;;22.50;99.90;;;;;;5092309;28;20252;-81
2022/05/01 03:45:27;;;;;;;5.40;1.02;;;22.50;99.90;;;;;;5092387;28;20198;-81
2022/05/01 03:47:58;;;;;;;3.60;1.13;;;22.50;99.90;;;;;;5090618;28;20262;-81
2022/05/01 03:50:28;;;;;;;5.30;1.05;;;22.50;99.90;;;;;;5092038;28;20252;-81
2022/05/01 03:52:59;;;;;;;2.92;0.80;;;22.50;99.90;;;;;;5072871;28;20271;-81
2022/05/01 03:55:33;;;;;;;3.63;1.00;;;22.50;99.90;;;;;;5071338;28;20813;-80
2022/05/01 03:58:04;;;;;;;4.15;1.00;;;22.50;99.90;;;;;;5071650;28;20202;-80
2022/05/01 04:00:35;;;;;;;6.40;1.17;;;22.50;99.90;;;;;;5071294;28;20670;-81
2022/05/01 04:03:06;;;;;;;5.00;0.88;;;22.50;99.90;;;;;;5071162;28;20249;-81
2022/05/01 04:05:36;;;;;;;5.10;1.10;;;22.50;99.90;;;;;;5079235;28;20199;-80
2022/05/01 04:08:08;;;;;;;5.10;1.20;;;22.50;99.90;;;;;;5091404;28;20195;-81
2022/05/01 04:10:41;;;;;;;3.33;0.95;;;22.50;99.90;;;;;;5089718;28;20230;-81
2022/05/01 04:13:12;;;;;;;3.15;1.10;;;22.50;99.90;;;;;;5091187;28;20285;-81
2022/05/01 04:15:43;;;;;;;4.53;1.13;;;22.60;99.90;;;;;;5090978;28;20230;-81
2022/05/01 04:18:14;;;;;;;4.85;1.40;;;22.60;99.90;;;;;;5091240;28;20191;-81
2022/05/01 04:20:46;;;;;;;2.95;1.20;;;22.60;99.90;;;;;;5090991;28;20247;-80
2022/05/01 04:23:17;;;;;;;3.05;0.85;;;22.60;99.90;;;;;;5075551;27;20204;-80
2022/05/01 04:25:49;;;;;;;3.13;1.15;;;22.60;99.90;;;;;;5069950;28;20225;-81
2022/05/01 04:28:20;;;;;;;2.38;1.00;;;22.60;99.90;;;;;;5070803;28;20685;-81
2022/05/01 04:30:52;;;;;;;6.28;1.15;;;22.60;99.90;;;;;;5070735;28;20196;-81
2022/05/01 04:33:22;;;;;;;2.10;1.02;;;22.50;99.90;;;;;;5070756;28;20265;-81
2022/05/01 04:35:53;;;;;;;3.40;1.05;;;22.50;99.90;;;;;;5080854;28;20222;-80
2022/05/01 04:38:26;;;;;;;4.82;1.35;;;22.50;99.90;;;;;;5091281;28;20207;-81
2022/05/01 04:41:00;;;;;;;6.28;1.63;;;22.40;99.90;;;;;;5092631;28;20203;-81
2022/05/01 04:43:31;;;;;;;2.95;0.93;;;22.40;99.90;;;;;;5090738;28;20277;-81
2022/05/01 04:46:03;;;;;;;4.82;1.00;;;22.40;99.90;;;;;;5090543;28;20202;-81
2022/05/01 04:48:33;;;;;;;4.68;1.08;;;22.40;99.90;;;;;;5082474;28;20269;-80
2022/05/01 04:51:05;;;;;;;5.20;0.93;;;22.40;99.90;;;;;;5071369;28;20662;-79
2022/05/01 04:53:35;;;;;;;5.28;1.10;;;22.30;99.90;;;;;;5090627;28;20260;-80
2022/05/01 04:58:55;;;;;;;5.05;0.95;;;22.30;99.90;;;;;;5091540;28;20264;-81
2022/05/01 05:01:26;;;;;;;4.57;1.00;;;22.30;99.90;;;;;;5091285;28;20359;-81
2022/05/01 05:03:58;;;;;;;3.30;0.90;;;22.20;99.90;;;;;;5091140;28;20205;-80
2022/05/01 05:06:30;;;;;;;3.85;0.90;;;22.10;99.90;;;;;;5096725;28;20234;-80
2022/05/01 05:11:49;;;;;;;3.97;0.80;;;22.00;99.90;;;;;;5069683;28;20196;-81
2022/05/01 05:14:19;;;;;;;2.60;0.70;;;22.00;99.90;;;;;;5082462;28;20203;-80
2022/05/01 05:16:50;;;;;;;2.55;0.90;;;22.00;99.90;;;;;;5092096;28;20642;-80
2022/05/01 05:19:21;;;;;;;3.95;0.93;;;22.00;99.90;;;;;;5092530;28;20275;-80
2022/05/01 05:21:51;;;;;;;4.13;1.00;;;22.00;99.90;;;;;;5091613;28;20211;-80
2022/05/01 05:24:22;;;;;;;3.17;0.90;;;21.90;99.90;;;;;;5079704;28;20199;-80
2022/05/01 05:26:55;;;;;;;3.05;0.80;;;21.90;99.90;;;;;;5071444;28;20208;-80
2022/05/01 05:29:25;;;;;;;3.90;1.08;;;21.90;99.90;;;;;;5072250;28;20574;-80
2022/05/01 05:31:56;;;;;;;5.50;0.90;;;21.80;99.90;;;;;;5091484;28;20210;-81
2022/05/01 05:34:28;;;;;;;2.90;1.00;;;21.80;99.90;;;;;;5091922;28;20263;-80
2022/05/01 05:36:58;;;;;;;3.45;0.70;;;21.80;99.90;;;;;;5091297;28;20231;-80
2022/05/01 05:39:30;;;;;;;3.60;0.88;;;21.90;99.90;;;;;;5088791;28;20256;-80
2022/05/01 05:42:02;;;;;;;3.22;0.90;;;22.00;99.90;;;;;;5090633;28;20650;-80
2022/05/01 05:44:33;;;;;;;3.72;0.95;;;22.00;99.90;;;;;;5090088;28;20203;-80
2022/05/01 05:47:04;;;;;;;3.35;0.82;;;22.00;99.90;;;;;;5086634;28;20204;-80
2022/05/01 05:49:35;;;;;;;3.15;0.70;;;22.10;99.90;;;;;;5069738;28;20196;-81
2022/05/01 05:52:06;;;;;;;2.95;0.90;;;22.10;99.90;;;;;;5069998;28;20203;-81
2022/05/01 05:54:37;;;;;;;5.63;1.00;;;22.10;99.90;;;;;;5069682;28;20621;-81
2022/05/01 05:57:09;;;;;;;5.07;0.95;;;22.10;99.90;;;;;;5068764;28;20223;-81
2022/05/01 05:59:40;;;;;;;5.55;1.20;;;22.20;99.90;;;;;;5069666;28;20231;-82
2022/05/01 06:02:11;;;;;;;4.88;1.20;;;22.20;99.90;;;;;;5069479;28;20224;-81
2022/05/01 06:04:42;;;;;;;4.53;1.02;;;22.10;99.90;;;;;;5074457;28;20275;-81
2022/05/01 06:07:12;;;;;;;3.20;1.10;;;22.00;99.90;;;;;;5089686;28;20210;-81
2022/05/01 06:09:43;;;;;;;4.60;1.10;;;21.90;99.90;;;;;;5089489;28;20195;-81
2022/05/01 06:12:16;;;;;;;3.70;0.90;;;21.80;99.90;;;;;;5089423;28;20240;-81
2022/05/01 06:14:46;;;;;;;3.33;1.00;;;21.70;99.90;;;;;;5069809;28;20196;-81
2022/05/01 06:17:17;;;;;;;4.75;0.95;;;21.70;99.90;;;;;;5069272;28;20571;-82
2022/05/01 06:19:48;;;;;;;2.95;0.98;;;21.70;99.90;;;;;;5069280;28;20189;-82
2022/05/01 06:22:20;;;;;;;4.82;1.17;;;21.60;99.90;;;;;;5083453;28;20503;-81
2022/05/01 06:24:51;;;;;;;3.42;1.00;;;21.60;99.90;;;;;;5089833;28;20561;-82
2022/05/01 06:27:23;;;;;;;3.22;1.00;;;21.50;99.90;;;;;;5089550;28;20203;-81
2022/05/01 06:29:57;;;;;;;6.00;0.70;;;21.50;99.90;;;;;;5080627;28;20257;-81
2022/05/01 06:32:28;;;;;;;3.20;1.00;;;21.50;99.90;;;;;;5069618;28;20204;-81
2022/05/01 06:34:59;;;;;;;4.78;1.15;;;21.50;99.90;;;;;;5069383;28;20204;-81
2022/05/01 06:37:29;;;;;;;5.45;1.15;;;21.50;99.90;;;;;;5068990;28;20200;-82
2022/05/01 06:40:00;;;;;;;4.80;1.10;;;21.40;99.90;;;;;;5068799;28;20234;-81
2022/05/01 06:42:33;;;;;;;3.53;1.00;;;21.40;99.90;;;;;;5069008;28;20292;-82
2022/05/01 06:45:04;;;;;;;2.85;0.90;;;21.40;99.90;;;;;;5075423;28;20203;-81
2022/05/01 06:47:34;;;;;;;6.78;1.10;;;21.30;99.90;;;;;;5079650;28;20211;-81
2022/05/01 06:50:05;;;;;;;4.13;1.00;;;21.30;99.90;;;;;;5072319;28;20622;-81
2022/05/01 06:52:36;;;;;;;5.43;0.93;;;21.20;99.90;;;;;;5072472;28;20280;-81
2022/05/01 06:55:09;;;;;;;3.95;0.68;;;21.20;99.90;;;;;;5076051;28;20206;-80
2022/05/01 06:57:43;;;;;;;4.97;1.00;;;21.20;99.90;;;;;;5092477;28;20210;-81
2022/05/01 07:00:14;;;;;;;3.53;0.75;;;21.10;99.90;;;;;;5092338;28;20209;-80
2022/05/01 07:02:48;;;;;;;3.25;0.88;;;21.00;99.90;;;;;;5092418;28;20231;-81
2022/05/01 07:05:19;;;;;;;3.88;0.90;;;20.90;99.90;;;;;;5085611;28;20895;-81
2022/05/01 07:07:51;;;;;;;4.82;1.00;;;20.90;99.90;;;;;;5071771;28;20204;-81
2022/05/01 07:10:22;;;;;;;4.20;1.00;;;20.80;99.90;;;;;;5071758;28;20200;-80
2022/05/01 07:12:54;;;;;;;5.97;1.00;;;20.80;99.90;;;;;;5081823;28;20233;-81
2022/05/01 07:15:25;;;;;;;4.72;0.90;;;20.80;99.90;;;;;;5092354;28;20682;-81
2022/05/01 07:17:55;;;;;;;4.20;1.00;;;20.70;99.90;;;;;;5092494;28;20243;-81
2022/05/01 07:20:26;;;;;;;5.32;1.08;;;20.70;99.90;;;;;;5088553;28;20629;-81
2022/05/01 07:22:57;;;;;;;5.60;1.00;;;20.70;99.90;;;;;;5071497;28;20203;-80
2022/05/01 07:25:28;;;;;;;3.90;1.00;;;20.60;99.90;;;;;;5071897;28;20270;-80
2022/05/01 07:28:01;;;;;;;8.27;1.08;;;20.50;99.90;;;;;;5071818;28;20608;-80
2022/05/01 07:30:31;;;;;;;3.45;0.98;;;20.50;99.90;;;;;;5071959;28;20204;-80
2022/05/01 07:33:02;;;;;;;4.43;1.13;;;20.40;99.90;;;;;;5071386;28;20200;-80
2022/05/01 07:35:32;;;;;;;5.22;0.98;;;20.40;99.90;;;;;;5071300;28;20196;-80
2022/05/01 07:38:04;;;;;;;4.03;1.00;;;20.40;99.90;;;;;;5070235;28;20297;-80
2022/05/01 07:40:36;;;;;;;4.57;1.10;;;20.40;99.90;;;;;;5071300;28;20281;-80
2022/05/01 07:43:09;;;;;;;5.20;1.17;;;20.30;99.90;;;;;;5071406;28;20204;-80
2022/05/01 07:45:40;;;;;;;3.67;1.20;;;20.30;99.90;;;;;;5071575;28;20253;-80
2022/05/01 07:48:11;;;;;;;6.13;1.17;;;20.30;99.90;;;;;;5071403;28;20273;-80
2022/05/01 07:50:42;;;;;;;5.07;1.17;;;20.20;99.90;;;;;;5071125;28;20659;-80
2022/05/01 07:53:14;;;;;;;3.33;0.95;;;20.20;99.90;;;;;;5071359;28;20195;-80
2022/05/01 07:55:45;;;;;;;3.17;0.90;;;20.20;99.90;;;;;;5069819;28;20195;-80
2022/05/01 07:58:19;;;;;;;3.35;1.17;;;20.20;99.90;;;;;;5071106;28;20226;-80
2022/05/01 08:00:50;;;;;;;3.13;0.85;;;20.20;99.90;;;;;;5070633;28;20231;-80
2022/05/01 08:06:08;;;;;;;3.60;1.13;;;20.20;99.90;;;;;;5049731;28;20196;-81
2022/05/01 08:08:39;;;;;;;3.08;0.90;;;20.20;99.90;;;;;;5070530;28;20199;-81
2022/05/01 08:11:12;;;;;;;3.88;1.02;;;20.20;99.90;;;;;;5087956;28;20199;-80
2022/05/01 08:13:45;;;;;;;3.65;1.10;;;20.20;99.90;;;;;;5089271;28;20632;-80
2022/05/01 08:16:17;;;;;;;5.50;1.40;;;20.10;99.90;;;;;;5090626;28;20215;-81
2022/05/01 08:21:35;;;;;;;4.53;2.00;;;20.10;99.90;;;;;;5073938;28;20567;-81
2022/05/01 08:24:06;;;;;;;5.90;2.50;;;20.10;99.90;;;;;;5069953;28;20192;-80
2022/05/01 08:26:37;;;;;;;5.45;2.40;;;20.10;99.90;;;;;;5069972;28;20200;-81
2022/05/01 08:29:09;;;;;;;8.77;2.20;;;20.10;99.90;;;;;;5069245;28;20200;-80
2022/05/01 08:31:40;;;;;;;6.15;1.98;;;20.10;99.90;;;;;;5069976;28;20547;-81
2022/05/01 08:34:11;;;;;;;3.70;1.90;;;20.10;99.90;;;;;;5070245;28;20253;-80
2022/05/01 08:36:42;;;;;;;5.25;1.80;;;20.10;99.90;;;;;;5071278;28;20361;-80
2022/05/01 08:39:12;;;;;;;5.15;1.70;;;20.10;99.90;;;;;;5090371;28;20287;-80
2022/05/01 08:41:43;;;;;;;5.88;1.67;;;20.10;99.90;;;;;;5090263;28;20288;-81
2022/05/01 08:44:16;;;;;;;3.38;1.40;;;20.10;99.90;;;;;;5081394;28;20249;-80
2022/05/01 08:47:02;;;;;;;3.75;1.30;;;20.10;99.90;;;;;;5070149;28;20192;-81
2022/05/01 08:49:36;;;;;;;4.60;1.10;;;20.00;99.90;;;;;;5070975;28;20215;-80
2022/05/01 08:52:10;;;;;;;2.03;1.20;;;20.10;99.90;;;;;;5077487;28;20194;-79
2022/05/01 08:54:41;;;;;;;6.55;1.30;;;20.00;99.90;;;;;;5093039;28;22040;-79
2022/05/01 08:57:12;;;;;;;3.78;1.33;;;20.00;99.90;;;;;;5100318;28;20222;-80
2022/05/01 08:59:46;;;;;;;5.03;1.65;;;20.00;99.90;;;;;;5098845;28;20639;-78
2022/05/01 09:02:17;;;;;;;3.42;1.25;;;20.00;99.90;;;;;;5090665;28;20222;-88
2022/05/01 09:04:48;;;;;;;3.60;1.20;;;20.00;99.90;;;;;;5083310;28;20203;-82
2022/05/01 09:07:19;;;;;;;3.90;1.65;;;20.00;99.90;;;;;;5082800;28;20199;-77
2022/05/01 09:09:51;;;;;;;4.05;1.40;;;20.10;99.90;;;;;;5082198;28;20195;-80
2022/05/01 09:15:11;;;;;;;6.53;1.50;;;20.00;99.90;;;;;;5085870;28;20304;-79
2022/05/01 09:17:42;;;;;;;3.97;1.35;;;20.00;99.90;;;;;;5073951;28;20258;-80
2022/05/01 09:20:14;;;;;;;2.90;1.13;;;20.00;99.90;;;;;;5089574;28;20191;-79
2022/05/01 09:22:54;;;;;;;4.13;1.45;;;20.00;99.90;;;;;;5070093;28;20626;-79
2022/05/01 09:25:26;;;;;;;5.70;2.97;;;19.90;99.90;;;;;;5069379;28;20224;-79
2022/05/01 09:27:59;;;;;;;6.78;3.20;;;19.90;99.90;;;;;;5089766;28;20749;-79
2022/05/01 09:30:40;;;;;;;5.40;2.58;;;19.90;99.90;;;;;;5086964;28;20191;-77
2022/05/01 09:33:20;;;;;;;4.60;1.80;;;19.80;99.90;;;;;;5079832;28;20216;-77
2022/05/01 09:35:51;;;;;;;5.20;1.85;;;19.80;99.90;;;;;;5078622;28;20282;-77
2022/05/01 09:38:23;;;;;;;3.78;1.60;;;19.80;99.90;;;;;;5079260;28;20223;-76
2022/05/01 09:40:56;;;;;;;6.53;1.83;;;19.80;99.90;;;;;;5084769;28;20275;-78
2022/05/01 09:43:37;;;;;;;7.97;1.70;;;19.80;99.90;;;;;;5069598;28;20611;-78
2022/05/01 09:46:20;;;;;;;4.07;1.73;;;19.70;99.90;;;;;;5069307;28;20261;-79
2022/05/01 09:49:04;;;;;;;5.20;2.08;;;19.70;99.90;;;;;;5086191;28;20570;-79
2022/05/01 09:51:36;;;;;;;6.30;2.50;;;19.70;99.90;;;;;;5089153;28;20187;-79
2022/05/01 09:54:07;;;;;;;7.82;3.08;;;19.60;99.90;;;;;;5086643;28;20248;-77
2022/05/01 09:56:48;;;;;;;7.20;2.70;;;19.60;99.90;;;;;;5082356;28;20265;-76
2022/05/01 09:59:20;;;;;;;6.22;2.50;;;19.60;99.90;;;;;;5088445;28;20191;-77
2022/05/01 10:02:03;;;;;;;6.88;2.50;;;19.60;99.90;;;;;;5086832;28;20260;-76
2022/05/01 10:04:34;;;;;;;8.27;2.50;;;19.60;99.90;;;;;;5068999;28;20282;-77
2022/05/01 10:07:06;;;;;;;7.00;2.40;;;19.50;99.90;;;;;;5076622;28;20222;-77
2022/05/01 10:09:38;;;;;;;5.95;2.00;;;19.50;99.90;;;;;;5089438;28;20195;-76
2022/05/01 10:12:10;;;;;;;7.57;2.10;;;19.50;99.90;;;;;;5078094;28;20230;-76
2022/05/01 10:14:41;;;;;;;8.65;2.50;;;19.50;99.90;;;;;;5069454;28;20207;-79
2022/05/01 10:17:13;;;;;;;3.55;2.00;;;19.50;99.90;;;;;;5068479;28;20224;-79
2022/05/01 10:19:45;;;;;;;5.55;2.00;;;19.50;99.90;;;;;;5080038;28;20200;-78
2022/05/01 10:22:15;;;;;;;6.53;2.28;;;19.50;99.90;;;;;;5092259;28;20203;-78
2022/05/01 10:24:47;;;;;;;8.02;2.83;;;19.50;99.90;;;;;;5090682;28;20238;-78
2022/05/01 10:27:30;;;;;;;4.38;2.20;;;19.50;99.90;;;;;;5089990;28;20256;-79
2022/05/01 10:33:33;;;;;;;3.75;1.80;;;19.50;99.90;;;;;;5078184;28;20602;-77
2022/05/01 10:36:39;;;;;;;6.90;2.17;;;19.50;99.90;;;;;;5086957;28;20723;-76
2022/05/01 10:39:14;;;;;;;4.82;1.73;;;19.50;99.90;;;;;;5088271;28;20195;-76
2022/05/01 10:41:46;;;;;;;4.05;1.52;;;19.40;99.90;;;;;;5080665;28;20194;-76
2022/05/01 10:44:30;;;;;;;8.45;2.00;;;19.40;99.90;;;;;;5084311;28;20203;-76
2022/05/01 10:47:13;;;;;;;6.93;2.25;;;19.40;99.90;;;;;;5088972;28;20650;-77
2022/05/01 10:49:49;;;;;;;5.20;2.15;;;19.30;99.90;;;;;;5085666;28;20203;-77
2022/05/01 10:52:21;;;;;;;4.55;2.38;;;19.30;99.90;;;;;;5072021;28;20274;-80
2022/05/01 10:54:59;;;;;;;7.45;2.42;;;19.20;99.90;;;;;;5081523;28;20353;-80
2022/05/01 10:57:30;;;;;;;7.13;2.45;;;19.20;99.90;;;;;;5087502;28;20229;-80
2022/05/01 11:00:13;;;;;;;5.85;2.70;;;19.20;99.90;;;;;;5093279;28;20262;-79
2022/05/01 11:02:49;;;;;;;8.38;2.53;;;19.20;99.90;;;;;;5092199;28;20326;-78
2022/05/01 11:05:49;;;;;;;6.25;2.47;;;19.20;99.90;;;;;;5088190;28;20191;-78
2022/05/01 11:08:23;;;;;;;7.38;2.30;;;19.20;99.90;;;;;;5071571;28;20206;-80
2022/05/01 11:10:56;;;;;;;5.32;2.40;;;19.20;99.90;;;;;;5079567;28;20568;-79
2022/05/01 11:13:31;;;;;;;5.60;2.00;;;19.20;99.90;;;;;;5070948;28;20211;-78
2022/05/01 11:16:03;;;;;;;4.95;2.25;;;19.20;99.90;;;;;;5071873;28;20235;-79
2022/05/01 11:18:37;;;;;;;7.18;2.40;;;19.20;99.90;;;;;;5071633;28;20598;-78
2022/05/01 11:21:38;;;;;;;5.15;2.00;;;19.10;99.90;;;;;;5071225;28;20603;-78
2022/05/01 11:24:13;;;;;;;6.78;2.25;;;19.10;99.90;;;;;;5069822;28;20349;-78
2022/05/01 11:27:16;;;;;;;7.78;2.58;;;19.10;99.90;;;;;;5081121;28;20240;-78
2022/05/01 11:30:22;;;;;;;5.45;2.40;;;19.10;99.90;;;;;;5081699;28;20278;-76
2022/05/01 11:32:53;;;;;;;4.45;2.40;;;19.10;99.90;;;;;;5089402;28;20198;-77
2022/05/01 11:35:44;;;;;;;7.15;2.95;;;19.00;99.90;;;;;;5081911;28;20615;-77
2022/05/01 11:38:16;;;;;;;6.57;2.88;;;19.00;99.90;;;;;;5091309;28;20292;-77
2022/05/01 11:40:57;;;;;;;12.82;7.28;;;19.00;99.90;;;;;;5084133;28;20257;-77
2022/05/01 11:43:28;;;;;;;10.40;5.68;;;19.00;99.90;;;;;;5072234;28;20222;-79
2022/05/01 11:45:59;;;;;;;12.07;6.13;;;19.00;99.90;;;;;;5072620;28;20373;-77
2022/05/01 11:48:32;;;;;;;9.35;4.53;;;19.00;99.90;;;;;;5080589;28;20253;-76
2022/05/01 11:51:04;;;;;;;6.97;3.25;;;19.00;99.90;;;;;;5091857;28;20666;-78
2022/05/01 11:53:37;;;;;;;8.07;3.30;;;19.00;99.90;;;;;;5092245;28;20285;-78
2022/05/01 12:04:36;;;;;;;6.18;2.88;;;18.80;99.90;;;;;;5080472;28;20715;-78
2022/05/01 12:07:11;;;;;;;8.25;3.00;;;18.80;99.90;;;;;;5081333;28;20234;-78
2022/05/01 12:09:46;;;;;;;5.22;2.67;;;18.80;99.90;;;;;;5083224;28;20191;-78
2022/05/01 12:12:19;;;;;;;6.15;2.85;;;18.80;99.90;;;;;;5091019;28;20222;-78
2022/05/01 12:14:51;;;;;;;6.88;2.90;;;18.80;99.90;;;;;;5087530;28;20197;-79
2022/05/01 12:17:23;;;;;;;6.65;2.78;;;18.80;99.90;;;;;;5070880;28;20779;-79
2022/05/01 12:19:54;;;;;;;5.65;2.28;;;18.80;99.90;;;;;;5071365;28;20200;-79
2022/05/01 12:22:25;;;;;;;7.32;3.13;;;18.80;99.90;;;;;;5071138;28;20616;-79
2022/05/01 12:24:58;;;;;;;9.93;2.65;;;18.80;99.90;;;;;;5071191;28;20206;-78
2022/05/01 12:27:29;;;;;;;6.70;2.83;;;18.70;99.90;;;;;;5071100;28;20212;-78
2022/05/01 12:30:03;;;;;;;6.05;2.50;;;18.70;99.90;;;;;;5090541;28;20211;-77
2022/05/01 12:32:33;;;;;;;7.65;2.72;;;18.60;99.90;;;;;;5088862;28;20248;-76
2022/05/01 12:35:05;;;;;;;5.30;2.63;;;18.60;99.90;;;;;;5093008;28;20211;-77
2022/05/01 12:37:37;;;;;;;6.35;2.50;;;18.60;99.90;;;;;;5093882;28;20222;-77
2022/05/01 12:40:12;;;;;;;4.18;2.30;;;18.60;99.90;;;;;;5075849;28;20200;-77
2022/05/01 12:45:39;;;;;;;4.88;2.42;;;18.60;99.90;;;;;;5072597;28;20329;-77
2022/05/01 12:48:11;;;;;;;7.22;2.95;;;18.60;99.90;;;;;;5076357;28;20198;-77
2022/05/01 12:50:43;;;;;;;6.93;2.55;;;18.60;99.90;;;;;;5085021;28;20192;-78
2022/05/01 12:53:27;;;;;;;5.75;2.40;;;18.50;99.90;;;;;;5071789;28;20265;-78
2022/05/01 12:56:02;;;;;;;8.85;3.03;;;18.50;99.90;;;;;;5071202;28;20669;-78
2022/05/01 12:58:33;;;;;;;6.57;2.28;;;18.50;99.90;;;;;;5070325;28;20277;-78
2022/05/01 13:01:06;;;;;;;6.38;2.63;;;18.50;99.90;;;;;;5069015;28;20305;-80
2022/05/01 13:03:38;;;;;;;5.05;2.50;;;18.40;99.90;;;;;;5069022;28;20682;-79
2022/05/01 13:06:09;;;;;;;8.50;3.05;;;18.40;99.90;;;;;;5081494;28;20206;-81
2022/05/01 13:08:41;;;;;;;7.07;2.85;;;18.40;99.90;;;;;;5084562;28;20700;-79
2022/05/01 13:11:25;;;;;;;5.75;2.75;;;18.40;99.90;;;;;;5069340;28;20196;-79
2022/05/01 13:13:58;;;;;;;6.05;2.67;;;18.40;99.90;;;;;;5080905;28;20274;-80
2022/05/01 13:16:42;;;;;;;6.72;2.80;;;18.40;99.90;;;;;;5081011;28;20200;-80
2022/05/01 13:19:14;;;;;;;7.40;2.63;;;18.40;99.90;;;;;;5080191;28;20292;-79
2022/05/01 13:21:46;;;;;;;6.13;2.70;;;18.40;99.90;;;;;;5072936;28;20276;-78
2022/05/01 13:24:18;;;;;;;5.97;2.78;;;18.40;99.90;;;;;;5090226;28;20666;-80
2022/05/01 13:26:51;;;;;;;6.35;2.78;;;18.30;99.90;;;;;;5079054;28;20196;-79
2022/05/01 13:29:23;;;;;;;4.93;2.50;;;18.30;99.90;;;;;;5079289;28;20605;-79
2022/05/01 13:31:54;;;;;;;5.78;2.90;;;18.30;99.90;;;;;;5067561;28;20196;-80
2022/05/01 13:34:25;;;;;;;6.20;2.90;;;18.30;99.90;;;;;;5077496;28;20327;-79
2022/05/01 13:36:55;;;;;;;5.57;2.42;;;18.30;99.90;;;;;;5089558;28;20605;-79
2022/05/01 13:44:44;;;;;;;7.22;3.00;;;18.20;99.90;;;;;;5083834;28;20219;-79
2022/05/01 13:45:07;;;;;;;9.30;3.78;;;18.20;99.90;;;;;;5073596;28;20195;-79
2022/05/01 13:47:38;;;;;;;9.73;3.72;;;18.20;99.90;;;;;;5080034;28;20243;-80
2022/05/01 13:50:10;;;;;;;9.00;4.05;;;18.20;99.90;;;;;;5071214;28;20206;-80
2022/05/01 13:52:41;;;;;;;9.32;3.90;;;18.20;99.90;;;;;;5069676;28;20291;-80
2022/05/01 13:55:12;;;;;;;7.43;3.55;;;18.10;99.90;;;;;;5071062;28;20188;-79
2022/05/01 13:57:45;;;;;;;9.88;3.85;;;18.10;99.90;;;;;;5072958;28;20227;-79